Cherry Hills, Colorado
Current Conditions -  °F | °C
As of 1:53 AM on Sunday 26 Oct 2014 (Local Time) from KAPA Reporting Station
Clear Clear  
Wind Chill: 56°   Ceiling: Unl
Heat Index: 56°   Visibility: 10mi
Dew Point: 24°   Wind: 13mph
Humidity: 29%   Direction: 220°SW
Pressure: 29.97"   Gusts: NA
Location:  39.6106°N, 104.954°W
Report Text: KAPA 260753Z 22011KT 10SM CLR 13/M04 A2997 RMK AO2 SLP088 T01331044
Loading
Personal Weather Stations






























Interactive Weather Map
Tropical Storm Tracking
New forecast layout! Learn more

10-Day Weather Forecast

Advertisements
Track Severe Weather on mobile